createdAt,value
2017-04-27T00:00:20.099Z,0
2017-04-27T00:01:32.866Z,0
2017-04-27T00:02:45.717Z,0
2017-04-27T00:03:58.823Z,0
2017-04-27T00:05:11.648Z,0
2017-04-27T00:06:23.453Z,0
2017-04-27T00:07:36.211Z,0
2017-04-27T00:08:48.965Z,0
2017-04-27T00:10:01.917Z,0
2017-04-27T00:11:14.787Z,0
2017-04-27T00:12:27.675Z,0
2017-04-27T00:13:40.555Z,0
2017-04-27T00:14:53.636Z,0
2017-04-27T00:16:06.522Z,0
2017-04-27T00:17:18.450Z,0
2017-04-27T00:18:31.325Z,0
2017-04-27T00:19:44.211Z,0
2017-04-27T00:20:57.294Z,0
2017-04-27T00:22:09.683Z,0
2017-04-27T00:23:22.561Z,0
2017-04-27T00:24:35.435Z,0
2017-04-27T00:25:48.130Z,0
2017-04-27T00:27:01.030Z,0
2017-04-27T00:28:13.917Z,0
2017-04-27T00:29:26.816Z,0
2017-04-27T00:30:39.721Z,0
2017-04-27T00:31:52.136Z,0
2017-04-27T00:33:05.019Z,0
2017-04-27T00:34:17.424Z,0
2017-04-27T00:35:30.304Z,0
2017-04-27T00:36:43.186Z,0
2017-04-27T00:37:56.080Z,0
2017-04-27T00:39:08.973Z,0
2017-04-27T00:40:21.381Z,0
2017-04-27T00:41:34.289Z,0
2017-04-27T00:42:47.172Z,0
2017-04-27T00:44:00.070Z,0
2017-04-27T00:45:12.963Z,0
2017-04-27T00:46:25.845Z,0
2017-04-27T00:47:38.741Z,0
2017-04-27T00:48:51.636Z,0
2017-04-27T00:50:04.030Z,0
2017-04-27T00:51:16.426Z,0
2017-04-27T00:52:29.310Z,0
2017-04-27T00:53:42.192Z,0
2017-04-27T00:54:55.073Z,0
2017-04-27T00:56:07.956Z,0
2017-04-27T00:57:19.864Z,0
2017-04-27T00:58:32.743Z,0
2017-04-27T00:59:45.630Z,0
2017-04-27T01:00:58.515Z,0
2017-04-27T01:02:10.910Z,0
2017-04-27T01:03:23.305Z,0
2017-04-27T01:04:35.697Z,0
2017-04-27T01:05:48.588Z,0
2017-04-27T01:07:00.980Z,0
2017-04-27T01:08:13.381Z,0
2017-04-27T01:10:52.754Z,0
2017-04-27T01:12:05.659Z,0
2017-04-27T01:13:18.554Z,0
2017-04-27T01:14:45.515Z,0
2017-04-27T01:15:58.437Z,0
2017-04-27T01:17:11.347Z,0
2017-04-27T01:18:24.276Z,0
2017-04-27T01:19:36.681Z,0
2017-04-27T01:20:49.602Z,0
2017-04-27T01:22:02.532Z,0
2017-04-27T01:23:14.961Z,0
2017-04-27T01:24:27.385Z,0
2017-04-27T01:25:40.310Z,0
2017-04-27T01:26:53.223Z,0
2017-04-27T01:28:06.122Z,0
2017-04-27T01:29:19.048Z,0
2017-04-27T01:30:32.267Z,0
2017-04-27T01:31:45.195Z,0
2017-04-27T01:32:58.137Z,0
2017-04-27T01:34:10.565Z,0
2017-04-27T01:35:23.463Z,0
2017-04-27T01:36:36.548Z,0
2017-04-27T01:37:49.448Z,0
2017-04-27T01:39:02.564Z,0
2017-04-27T01:40:14.487Z,0
2017-04-27T01:41:27.628Z,0
2017-04-27T01:42:40.576Z,0
2017-04-27T01:43:53.004Z,0
2017-04-27T01:45:05.429Z,0
2017-04-27T01:46:17.838Z,0
2017-04-27T01:47:30.747Z,0
2017-04-27T01:48:43.667Z,0
2017-04-27T01:49:56.593Z,0
2017-04-27T01:51:09.527Z,0
2017-04-27T01:52:21.953Z,0
2017-04-27T01:53:34.385Z,0
2017-04-27T01:54:47.308Z,0
2017-04-27T01:56:00.218Z,0
2017-04-27T01:57:12.666Z,0
2017-04-27T01:58:25.584Z,0
2017-04-27T01:59:38.526Z,0
2017-04-27T02:00:51.451Z,0
2017-04-27T02:02:04.383Z,0
2017-04-27T02:03:17.507Z,0
2017-04-27T02:04:30.402Z,0
2017-04-27T02:05:43.323Z,0
2017-04-27T02:06:56.241Z,0
2017-04-27T02:08:09.186Z,0
2017-04-27T02:09:22.096Z,0
2017-04-27T02:10:35.029Z,0
2017-04-27T02:11:47.455Z,0
2017-04-27T02:13:00.376Z,0
2017-04-27T02:14:13.300Z,0
2017-04-27T02:15:26.237Z,0
2017-04-27T02:16:39.157Z,0
2017-04-27T02:17:52.289Z,0
2017-04-27T02:19:05.216Z,0
2017-04-27T02:20:18.429Z,0
2017-04-27T02:21:31.354Z,0
2017-04-27T02:22:44.270Z,0
2017-04-27T02:23:57.229Z,0
2017-04-27T02:25:10.328Z,0
2017-04-27T02:26:23.107Z,0
2017-04-27T02:27:35.869Z,0
2017-04-27T02:28:48.662Z,0
2017-04-27T02:30:01.480Z,0
2017-04-27T02:31:14.442Z,0
2017-04-27T02:32:26.732Z,0
2017-04-27T02:33:39.500Z,0
2017-04-27T02:34:52.264Z,0
2017-04-27T02:36:04.555Z,0
2017-04-27T02:37:17.336Z,0
2017-04-27T02:38:30.110Z,0
2017-04-27T02:39:42.404Z,0
2017-04-27T02:40:55.188Z,0
2017-04-27T02:42:08.173Z,0
2017-04-27T02:43:20.954Z,0
2017-04-27T02:44:33.708Z,0
2017-04-27T02:45:46.448Z,0
2017-04-27T02:46:59.196Z,0
2017-04-27T02:48:11.461Z,0
2017-04-27T02:49:23.723Z,0
2017-04-27T02:50:36.476Z,0
2017-04-27T02:51:49.233Z,0
2017-04-27T02:53:01.990Z,0
2017-04-27T02:54:14.263Z,0
2017-04-27T02:55:27.005Z,0
2017-04-27T02:56:39.749Z,0
2017-04-27T02:58:06.579Z,0
2017-04-27T02:59:18.853Z,0
2017-04-27T03:00:31.122Z,0
2017-04-27T03:01:43.387Z,0
2017-04-27T03:02:56.138Z,0
2017-04-27T03:04:22.482Z,0
2017-04-27T03:05:35.256Z,0
2017-04-27T03:06:47.522Z,0
2017-04-27T03:08:00.265Z,0
2017-04-27T03:09:13.212Z,0
2017-04-27T03:10:25.961Z,0
2017-04-27T03:11:38.228Z,0
2017-04-27T03:12:50.974Z,0
2017-04-27T03:14:04.025Z,0
2017-04-27T03:16:16.340Z,0
2017-04-27T03:17:29.487Z,0
2017-04-27T03:18:42.291Z,0
2017-04-27T03:19:55.423Z,0
2017-04-27T03:21:08.096Z,0
2017-04-27T03:22:21.159Z,0
2017-04-27T03:23:34.682Z,0
2017-04-27T03:24:47.906Z,0
2017-04-27T03:26:00.782Z,0
2017-04-27T03:27:13.177Z,0
2017-04-27T03:28:26.056Z,0
2017-04-27T03:29:38.458Z,0
2017-04-27T03:30:51.334Z,0
2017-04-27T03:32:03.723Z,0
2017-04-27T03:33:15.627Z,0
2017-04-27T03:34:28.504Z,0
2017-04-27T03:35:40.892Z,0
2017-04-27T03:36:53.770Z,0
2017-04-27T03:38:06.651Z,0
2017-04-27T03:39:19.527Z,0
2017-04-27T03:40:31.920Z,0
2017-04-27T03:41:45.104Z,0
2017-04-27T03:42:57.983Z,0
2017-04-27T03:44:10.865Z,0
2017-04-27T03:45:23.769Z,0
2017-04-27T03:46:36.895Z,0
2017-04-27T03:47:49.773Z,0
2017-04-27T03:49:02.652Z,0
2017-04-27T03:50:14.554Z,0
2017-04-27T03:51:26.940Z,0
2017-04-27T03:52:39.818Z,0
2017-04-27T03:53:52.715Z,0
2017-04-27T03:55:05.639Z,0
2017-04-27T03:56:18.560Z,0
2017-04-27T03:57:31.483Z,0
2017-04-27T03:58:44.407Z,0
2017-04-27T03:59:57.330Z,0
2017-04-27T04:01:10.263Z,0
2017-04-27T04:02:23.187Z,0
2017-04-27T04:03:36.117Z,0
2017-04-27T04:04:49.038Z,0
2017-04-27T04:06:01.961Z,0
2017-04-27T04:07:14.390Z,0
2017-04-27T04:08:27.313Z,0
2017-04-27T04:09:39.748Z,0
2017-04-27T04:10:52.674Z,0
2017-04-27T04:12:05.596Z,0
2017-04-27T04:13:18.515Z,0
2017-04-27T04:14:31.690Z,0
2017-04-27T04:15:44.608Z,0
2017-04-27T04:16:57.529Z,0
2017-04-27T04:18:10.453Z,0
2017-04-27T04:19:23.625Z,0
2017-04-27T04:20:36.548Z,0
2017-04-27T04:21:49.467Z,0
2017-04-27T04:23:01.900Z,0
2017-04-27T04:24:14.823Z,0
2017-04-27T04:25:27.998Z,0
2017-04-27T04:26:40.918Z,0
2017-04-27T04:27:53.843Z,0
2017-04-27T04:29:06.311Z,0
2017-04-27T04:30:18.743Z,0
2017-04-27T04:31:31.673Z,0
2017-04-27T04:32:44.596Z,0
2017-04-27T04:33:57.517Z,0
2017-04-27T04:35:09.947Z,0
2017-04-27T04:36:22.868Z,0
2017-04-27T04:37:35.788Z,0
2017-04-27T04:38:48.716Z,0
2017-04-27T04:40:01.645Z,0
2017-04-27T04:41:14.866Z,0
2017-04-27T04:42:27.786Z,0
2017-04-27T04:43:40.708Z,0
2017-04-27T04:44:53.629Z,0
2017-04-27T04:46:06.554Z,0
2017-04-27T04:47:19.474Z,0
2017-04-27T04:48:32.394Z,0
2017-04-27T04:49:44.832Z,0
2017-04-27T04:50:57.759Z,0
2017-04-27T04:52:10.685Z,0
2017-04-27T04:53:23.119Z,0
2017-04-27T04:54:36.043Z,0
2017-04-27T04:55:48.972Z,0
2017-04-27T04:57:01.897Z,0
2017-04-27T04:58:15.070Z,0
2017-04-27T04:59:28.009Z,0
2017-04-27T05:00:40.441Z,0
2017-04-27T05:01:53.391Z,0
2017-04-27T05:03:06.320Z,0
2017-04-27T05:04:19.251Z,0
2017-04-27T05:05:32.179Z,0
2017-04-27T05:06:45.031Z,0
2017-04-27T05:07:57.796Z,0
2017-04-27T05:09:10.073Z,0
2017-04-27T05:10:22.824Z,0
2017-04-27T05:11:35.564Z,0
2017-04-27T05:12:48.326Z,0
2017-04-27T05:14:01.334Z,0
2017-04-27T05:15:14.076Z,0
2017-04-27T05:16:26.817Z,0
2017-04-27T05:17:39.081Z,0
2017-04-27T05:18:51.842Z,0
2017-04-27T05:20:04.890Z,0
2017-04-27T05:21:16.676Z,0
2017-04-27T05:22:29.428Z,0
2017-04-27T05:23:42.174Z,0
2017-04-27T05:24:54.923Z,0
2017-04-27T05:26:07.795Z,0
2017-04-27T05:27:20.199Z,0
2017-04-27T05:28:32.636Z,0
2017-04-27T05:29:45.524Z,0
2017-04-27T05:30:58.649Z,0
2017-04-27T05:32:11.528Z,0
2017-04-27T05:33:23.918Z,0
2017-04-27T05:34:36.797Z,0
2017-04-27T05:35:49.927Z,0
2017-04-27T05:37:02.804Z,0
2017-04-27T05:38:15.687Z,0
2017-04-27T05:39:28.075Z,0
2017-04-27T05:40:40.951Z,0
2017-04-27T05:41:53.336Z,0
2017-04-27T05:43:06.214Z,0
2017-04-27T05:44:18.120Z,0
2017-04-27T05:45:30.994Z,0
2017-04-27T05:46:43.873Z,0
2017-04-27T05:47:56.747Z,0
2017-04-27T05:49:09.625Z,0
2017-04-27T05:50:22.501Z,0
2017-04-27T05:51:35.376Z,0
2017-04-27T05:52:48.256Z,0
2017-04-27T05:54:01.141Z,0
2017-04-27T05:55:14.016Z,0
2017-04-27T05:56:26.403Z,0
2017-04-27T05:57:39.588Z,0
2017-04-27T05:58:52.463Z,0
2017-04-27T06:00:05.341Z,0
2017-04-27T06:01:18.219Z,0
2017-04-27T06:02:31.105Z,0
2017-04-27T06:03:43.748Z,0
2017-04-27T06:04:56.630Z,0
2017-04-27T06:06:09.021Z,0
2017-04-27T06:07:21.907Z,0
2017-04-27T06:08:34.791Z,0
2017-04-27T06:09:47.667Z,0
2017-04-27T06:11:00.418Z,0
2017-04-27T06:12:13.169Z,0
2017-04-27T06:13:25.476Z,0
2017-04-27T06:14:37.746Z,0
2017-04-27T06:15:50.495Z,0
2017-04-27T06:17:03.235Z,0
2017-04-27T06:18:16.135Z,0
2017-04-27T06:19:29.059Z,0
2017-04-27T06:20:41.491Z,0
2017-04-27T06:21:54.411Z,0
2017-04-27T06:23:07.333Z,0
2017-04-27T06:24:20.255Z,0
2017-04-27T06:25:33.177Z,0
2017-04-27T06:26:46.102Z,0
2017-04-27T06:27:59.034Z,0
2017-04-27T06:29:11.956Z,0
2017-04-27T06:30:24.636Z,0
2017-04-27T06:31:37.066Z,0
2017-04-27T06:32:49.986Z,0
2017-04-27T06:34:02.907Z,0
2017-04-27T06:35:15.859Z,0
2017-04-27T06:36:28.290Z,0
2017-04-27T06:37:41.211Z,0
2017-04-27T06:38:54.135Z,0
2017-04-27T06:40:07.096Z,0
2017-04-27T06:41:19.778Z,0
2017-04-27T06:42:32.704Z,0
2017-04-27T06:43:45.623Z,0
2017-04-27T06:44:58.545Z,0
2017-04-27T06:46:11.466Z,0
2017-04-27T06:47:24.195Z,0
2017-04-27T06:48:36.627Z,0
2017-04-27T06:49:49.551Z,0
2017-04-27T06:51:02.472Z,0
2017-04-27T06:52:15.641Z,0
2017-04-27T06:53:28.561Z,0
2017-04-27T06:54:41.485Z,0
2017-04-27T06:55:54.535Z,0
2017-04-27T06:57:07.591Z,0
2017-04-27T06:58:20.661Z,0
2017-04-27T06:59:32.728Z,0
2017-04-27T07:00:45.789Z,0
2017-04-27T07:01:58.856Z,0
2017-04-27T07:03:11.918Z,0
2017-04-27T07:04:24.977Z,0
2017-04-27T07:05:38.045Z,0
2017-04-27T07:06:51.116Z,0
2017-04-27T07:08:04.179Z,0
2017-04-27T07:09:17.242Z,0
2017-04-27T07:10:29.800Z,0
2017-04-27T07:11:42.858Z,0
2017-04-27T07:12:55.417Z,0
2017-04-27T07:14:08.474Z,0
2017-04-27T07:15:21.035Z,0
2017-04-27T07:16:34.098Z,0
2017-04-27T07:17:47.169Z,0
2017-04-27T07:19:00.242Z,0
2017-04-27T07:20:13.051Z,0
2017-04-27T07:21:25.611Z,0
2017-04-27T07:22:38.670Z,0
2017-04-27T07:23:51.733Z,0
2017-04-27T07:25:04.793Z,0
2017-04-27T07:26:17.362Z,0
2017-04-27T07:27:30.421Z,0
2017-04-27T07:28:43.321Z,0
2017-04-27T07:29:56.203Z,0
2017-04-27T07:31:09.333Z,0
2017-04-27T07:32:21.720Z,0
2017-04-27T07:33:34.595Z,0
2017-04-27T07:34:47.476Z,0
2017-04-27T07:35:59.870Z,0
2017-04-27T07:37:12.748Z,0
2017-04-27T07:38:24.650Z,0
2017-04-27T07:39:37.528Z,0
2017-04-27T07:40:50.299Z,0
2017-04-27T07:42:03.340Z,0
2017-04-27T07:43:16.091Z,0
2017-04-27T07:44:28.844Z,0
2017-04-27T07:45:41.589Z,0
2017-04-27T07:46:54.329Z,0
2017-04-27T07:48:07.076Z,0
2017-04-27T07:49:19.348Z,0
2017-04-27T07:50:32.117Z,0
2017-04-27T07:51:44.871Z,0
2017-04-27T07:52:57.617Z,0
2017-04-27T07:54:10.363Z,0
2017-04-27T07:55:22.156Z,0
2017-04-27T07:56:34.905Z,0
2017-04-27T07:57:47.901Z,0
2017-04-27T07:59:00.648Z,0
2017-04-27T08:00:13.392Z,0
2017-04-27T08:01:26.131Z,0
2017-04-27T08:02:38.877Z,0
2017-04-27T08:03:50.974Z,0
2017-04-27T08:05:03.719Z,0
2017-04-27T08:06:15.507Z,0
2017-04-27T08:07:28.402Z,0
2017-04-27T08:08:40.833Z,0
2017-04-27T08:09:53.757Z,0
2017-04-27T08:11:06.201Z,0
2017-04-27T08:12:18.633Z,0
2017-04-27T08:13:31.559Z,0
2017-04-27T08:14:43.995Z,0
2017-04-27T08:15:56.912Z,0
2017-04-27T08:17:09.843Z,0
2017-04-27T08:18:21.298Z,0
2017-04-27T08:19:34.225Z,0
2017-04-27T08:20:47.142Z,0
2017-04-27T08:22:00.074Z,0
2017-04-27T08:23:12.994Z,0
2017-04-27T08:24:24.935Z,0
2017-04-27T08:25:38.108Z,0
2017-04-27T08:26:51.043Z,0
2017-04-27T08:28:03.969Z,0
2017-04-27T08:29:16.409Z,0
2017-04-27T08:30:29.145Z,0
2017-04-27T08:31:41.577Z,0
2017-04-27T08:32:54.024Z,0
2017-04-27T08:34:06.947Z,0
2017-04-27T08:35:18.401Z,0
2017-04-27T08:36:31.577Z,0
2017-04-27T08:37:44.006Z,0
2017-04-27T08:38:56.928Z,0
2017-04-27T08:40:09.361Z,0
2017-04-27T08:41:21.552Z,0
2017-04-27T08:42:33.981Z,0
2017-04-27T08:43:46.910Z,0
2017-04-27T08:44:59.841Z,0
2017-04-27T08:46:11.779Z,0
2017-04-27T08:47:24.463Z,0
2017-04-27T08:48:36.403Z,0
2017-04-27T08:49:48.848Z,0
2017-04-27T08:51:01.773Z,0
2017-04-27T08:52:14.011Z,0
2017-04-27T08:53:25.461Z,0
2017-04-27T08:54:37.894Z,0
2017-04-27T08:55:50.818Z,0
2017-04-27T08:57:03.735Z,0
2017-04-27T08:58:16.466Z,0
2017-04-27T08:59:28.898Z,0
2017-04-27T09:00:41.817Z,0
2017-04-27T09:01:54.252Z,0
2017-04-27T09:03:06.442Z,0
2017-04-27T09:04:18.873Z,0
2017-04-27T09:05:31.798Z,0
2017-04-27T09:06:44.227Z,0
2017-04-27T09:07:56.661Z,0
2017-04-27T09:09:09.840Z,0
2017-04-27T09:10:22.270Z,0
2017-04-27T09:11:35.192Z,0
2017-04-27T09:12:47.630Z,0
2017-04-27T09:14:00.809Z,0
2017-04-27T09:15:13.729Z,0
2017-04-27T09:16:25.669Z,0
2017-04-27T09:17:38.103Z,0
2017-04-27T09:18:51.034Z,0
2017-04-27T09:20:03.768Z,0
2017-04-27T09:21:16.208Z,0
2017-04-27T09:22:29.135Z,0
2017-04-27T09:23:42.065Z,0
2017-04-27T09:24:54.021Z,0
2017-04-27T09:26:06.945Z,0
2017-04-27T09:27:19.394Z,0
2017-04-27T09:28:31.824Z,0
2017-04-27T09:29:44.252Z,0
2017-04-27T09:30:57.173Z,0
2017-04-27T09:32:10.092Z,0
2017-04-27T09:33:22.530Z,0
2017-04-27T09:34:35.454Z,0
2017-04-27T09:35:48.133Z,0
2017-04-27T09:37:01.052Z,0
2017-04-27T09:38:13.485Z,0
2017-04-27T09:39:25.916Z,0
2017-04-27T09:40:38.347Z,0
2017-04-27T09:41:51.271Z,0
2017-04-27T09:43:03.710Z,0
2017-04-27T09:44:16.638Z,0
2017-04-27T09:45:29.589Z,0
2017-04-27T09:48:09.483Z,0
2017-04-27T09:49:22.413Z,0
2017-04-27T09:50:35.186Z,0
2017-04-27T09:51:47.456Z,0
2017-04-27T09:52:59.728Z,0
2017-04-27T09:54:12.474Z,0
2017-04-27T09:55:24.377Z,0
2017-04-27T09:56:36.304Z,0
2017-04-27T09:57:49.188Z,0
2017-04-27T09:59:01.580Z,0
2017-04-27T10:00:14.458Z,0
2017-04-27T10:01:27.337Z,0
2017-04-27T10:02:40.216Z,0
2017-04-27T10:03:53.096Z,0
2017-04-27T10:05:05.496Z,0
2017-04-27T10:06:18.375Z,0
2017-04-27T10:07:31.252Z,0
2017-04-27T10:08:44.138Z,0
2017-04-27T10:09:57.016Z,0
2017-04-27T10:11:09.899Z,0
2017-04-27T10:12:22.773Z,0
2017-04-27T10:13:35.655Z,0
2017-04-27T10:14:48.046Z,0
2017-04-27T10:16:00.924Z,0
2017-04-27T10:17:13.796Z,0
2017-04-27T10:18:26.188Z,0
2017-04-27T10:19:38.579Z,0
2017-04-27T10:20:51.463Z,0
2017-04-27T10:22:03.860Z,0
2017-04-27T10:23:16.745Z,0
2017-04-27T10:24:29.646Z,0
2017-04-27T10:25:42.521Z,0
2017-04-27T10:26:55.433Z,5
2017-04-27T10:28:08.308Z,5
2017-04-27T10:29:20.210Z,5
2017-04-27T10:30:33.386Z,5
2017-04-27T10:31:46.268Z,5
2017-04-27T10:32:59.144Z,5
2017-04-27T10:34:12.021Z,5
2017-04-27T10:35:24.177Z,5
2017-04-27T10:36:36.577Z,5
2017-04-27T10:37:49.449Z,0
2017-04-27T10:39:02.326Z,0
2017-04-27T10:40:14.159Z,0
2017-04-27T10:41:26.421Z,5
2017-04-27T10:42:38.691Z,5
2017-04-27T10:43:51.439Z,5
2017-04-27T10:45:04.183Z,5
2017-04-27T10:46:17.176Z,10
2017-04-27T10:47:29.922Z,10
2017-04-27T10:48:42.666Z,15
2017-04-27T10:49:55.416Z,15
2017-04-27T10:51:08.165Z,15
2017-04-27T10:52:34.991Z,15
2017-04-27T10:53:47.263Z,15
2017-04-27T10:55:00.007Z,15
2017-04-27T10:56:12.279Z,15
2017-04-27T10:57:24.543Z,15
2017-04-27T10:58:36.812Z,15
2017-04-27T10:59:49.076Z,15
2017-04-27T11:01:01.851Z,15
2017-04-27T11:02:14.844Z,10
2017-04-27T11:03:27.585Z,10
2017-04-27T11:04:54.453Z,5
2017-04-27T11:06:06.716Z,5
2017-04-27T11:07:18.512Z,5
2017-04-27T11:08:30.781Z,5
2017-04-27T11:09:43.526Z,5
2017-04-27T11:10:55.788Z,5
2017-04-27T11:12:08.053Z,5
2017-04-27T11:13:21.009Z,10
2017-04-27T11:14:33.758Z,10
2017-04-27T11:15:46.501Z,10
2017-04-27T11:16:59.241Z,10
2017-04-27T11:18:12.008Z,10
2017-04-27T11:19:24.276Z,10
2017-04-27T11:20:37.020Z,10
2017-04-27T11:21:50.068Z,10
2017-04-27T11:23:02.330Z,10
2017-04-27T11:24:14.604Z,10
2017-04-27T11:25:27.469Z,10
2017-04-27T11:26:40.357Z,15
2017-04-27T11:27:53.051Z,15
2017-04-27T11:29:05.443Z,15
2017-04-27T11:30:18.328Z,15
2017-04-27T11:31:31.209Z,10
2017-04-27T11:32:43.600Z,10
2017-04-27T11:33:56.482Z,10
2017-04-27T11:35:08.387Z,10
2017-04-27T11:36:21.262Z,10
2017-04-27T11:37:33.657Z,10
2017-04-27T11:39:15.703Z,10
2017-04-27T11:40:28.582Z,10
2017-04-27T11:41:40.479Z,10
2017-04-27T11:42:53.357Z,5
2017-04-27T11:44:06.239Z,5
2017-04-27T11:45:18.635Z,5
2017-04-27T11:46:31.024Z,5
2017-04-27T11:47:43.904Z,10
2017-04-27T11:48:57.035Z,10
2017-04-27T11:50:09.915Z,10
2017-04-27T11:51:23.390Z,10
2017-04-27T11:52:36.274Z,10
2017-04-27T11:53:48.686Z,10
2017-04-27T11:55:01.567Z,10
2017-04-27T11:56:14.447Z,10
2017-04-27T11:57:27.324Z,10
2017-04-27T11:58:39.717Z,15
2017-04-27T11:59:52.591Z,15
2017-04-27T12:01:05.466Z,10
2017-04-27T12:02:17.369Z,10
2017-04-27T12:03:30.251Z,10
2017-04-27T12:04:43.144Z,10
2017-04-27T12:05:55.537Z,10
2017-04-27T12:07:08.417Z,10
2017-04-27T12:08:20.807Z,5
2017-04-27T12:09:33.689Z,5
2017-04-27T12:10:45.782Z,5
2017-04-27T12:11:58.530Z,5
2017-04-27T12:13:10.796Z,5
2017-04-27T12:14:23.550Z,5
2017-04-27T12:15:36.293Z,5
2017-04-27T12:16:49.034Z,5
2017-04-27T12:18:01.785Z,5
2017-04-27T12:19:14.054Z,5
2017-04-27T12:20:26.321Z,5
2017-04-27T12:21:38.920Z,5
2017-04-27T12:22:51.680Z,10
2017-04-27T12:24:03.946Z,10
2017-04-27T12:25:16.215Z,10
2017-04-27T12:26:28.482Z,15
2017-04-27T12:27:41.526Z,15
2017-04-27T12:28:53.796Z,15
2017-04-27T12:30:06.540Z,15
2017-04-27T12:31:18.322Z,15
2017-04-27T12:32:30.360Z,20
2017-04-27T12:33:43.106Z,20
2017-04-27T12:34:55.859Z,15
2017-04-27T12:36:07.652Z,15
2017-04-27T12:37:19.918Z,15
2017-04-27T12:38:32.662Z,10
2017-04-27T12:39:45.407Z,10
2017-04-27T12:40:58.159Z,10
2017-04-27T12:42:10.916Z,10
2017-04-27T12:43:23.662Z,10
2017-04-27T12:44:36.560Z,15
2017-04-27T12:45:49.310Z,15
2017-04-27T12:47:02.066Z,20
2017-04-27T12:48:14.331Z,20
2017-04-27T12:49:27.340Z,20
2017-04-27T12:50:40.083Z,20
2017-04-27T12:51:52.825Z,20
2017-04-27T12:53:05.567Z,20
2017-04-27T12:54:18.313Z,15
2017-04-27T12:55:45.137Z,20
2017-04-27T12:56:57.887Z,20
2017-04-27T12:58:10.152Z,20
2017-04-27T12:59:22.421Z,20
2017-04-27T13:00:35.165Z,20
2017-04-27T13:01:47.909Z,20
2017-04-27T13:03:00.655Z,20
2017-04-27T13:04:13.397Z,20
2017-04-27T13:06:52.485Z,15
2017-04-27T13:08:04.277Z,15
2017-04-27T13:09:17.031Z,15
2017-04-27T13:10:29.546Z,15
2017-04-27T13:11:42.444Z,15
2017-04-27T13:12:55.371Z,15
2017-04-27T13:14:08.292Z,15
2017-04-27T13:15:20.236Z,10
2017-04-27T13:16:32.920Z,10
2017-04-27T13:17:45.356Z,10
2017-04-27T13:18:58.286Z,10
2017-04-27T13:20:11.211Z,10
2017-04-27T13:21:24.406Z,10
2017-04-27T13:22:37.326Z,15
2017-04-27T13:23:50.254Z,15
2017-04-27T13:25:03.181Z,15
2017-04-27T13:26:16.105Z,15
2017-04-27T13:27:29.286Z,15
2017-04-27T13:28:42.213Z,15
2017-04-27T13:29:55.148Z,15
2017-04-27T13:31:07.104Z,15
2017-04-27T13:32:19.535Z,15
2017-04-27T13:33:31.973Z,15
2017-04-27T13:34:44.898Z,10
2017-04-27T13:35:57.822Z,10
2017-04-27T13:37:10.256Z,10
2017-04-27T13:38:23.212Z,10
2017-04-27T13:39:36.136Z,10
2017-04-27T13:40:48.592Z,10
2017-04-27T13:42:01.024Z,10
2017-04-27T13:43:13.454Z,10
2017-04-27T13:44:25.889Z,10
2017-04-27T13:45:38.659Z,10
2017-04-27T13:46:51.407Z,10
2017-04-27T13:48:04.147Z,5
2017-04-27T13:49:16.897Z,10
2017-04-27T13:50:29.163Z,10
2017-04-27T13:51:41.904Z,10
2017-04-27T13:52:54.178Z,10
2017-04-27T13:54:06.928Z,10
2017-04-27T13:55:19.199Z,10
2017-04-27T13:56:31.937Z,10
2017-04-27T13:57:44.200Z,10
2017-04-27T13:59:11.078Z,15
2017-04-27T14:00:23.817Z,15
2017-04-27T14:01:36.561Z,15
2017-04-27T14:02:49.309Z,20
2017-04-27T14:04:01.581Z,20
2017-04-27T14:05:14.327Z,20
2017-04-27T14:06:27.073Z,20
2017-04-27T14:07:39.818Z,20
2017-04-27T14:08:52.571Z,20
2017-04-27T14:10:05.315Z,20
2017-04-27T14:11:17.577Z,25
2017-04-27T14:12:30.315Z,25
2017-04-27T14:13:43.056Z,25
2017-04-27T14:14:55.802Z,20
2017-04-27T14:16:07.211Z,20
2017-04-27T14:17:19.959Z,20
2017-04-27T14:18:32.703Z,20
2017-04-27T14:19:44.975Z,25
2017-04-27T14:20:57.967Z,25
2017-04-27T14:22:09.893Z,25
2017-04-27T14:23:21.343Z,30
2017-04-27T14:24:33.776Z,30
2017-04-27T14:25:46.328Z,30
2017-04-27T14:26:59.390Z,35
2017-04-27T14:28:12.457Z,30
2017-04-27T14:29:25.523Z,35
2017-04-27T14:30:38.591Z,45
2017-04-27T14:31:51.406Z,40
2017-04-27T14:33:04.471Z,40
2017-04-27T14:34:17.531Z,45
2017-04-27T14:35:30.107Z,50
2017-04-27T14:36:43.169Z,40
2017-04-27T14:37:56.231Z,40
2017-04-27T14:39:09.285Z,35
2017-04-27T14:40:21.347Z,35
2017-04-27T14:41:34.411Z,35
2017-04-27T14:42:47.470Z,25
2017-04-27T14:44:00.042Z,25
2017-04-27T14:45:12.308Z,25
2017-04-27T14:46:25.370Z,25
2017-04-27T14:47:38.436Z,20
2017-04-27T14:48:51.010Z,20
2017-04-27T14:50:04.074Z,20
2017-04-27T14:51:16.643Z,20
2017-04-27T14:52:29.704Z,20
2017-04-27T14:53:42.766Z,25
2017-04-27T14:54:55.838Z,25
2017-04-27T14:56:08.765Z,20
2017-04-27T14:57:21.642Z,20
2017-04-27T14:58:34.035Z,20
2017-04-27T14:59:47.223Z,15
2017-04-27T15:00:59.613Z,15
2017-04-27T15:02:12.492Z,15
2017-04-27T15:03:24.897Z,15
2017-04-27T15:04:37.777Z,15
2017-04-27T15:05:50.172Z,15
2017-04-27T15:07:02.560Z,10
2017-04-27T15:08:14.953Z,10
2017-04-27T15:09:27.839Z,10
2017-04-27T15:10:40.529Z,10
2017-04-27T15:11:52.916Z,10
2017-04-27T15:13:05.805Z,10
2017-04-27T15:14:17.716Z,10
2017-04-27T15:15:30.993Z,5
2017-04-27T15:16:43.873Z,5
2017-04-27T15:17:56.753Z,0
2017-04-27T15:19:09.634Z,5
2017-04-27T15:20:22.514Z,5
2017-04-27T15:21:34.909Z,0
2017-04-27T15:22:47.794Z,5
2017-04-27T15:24:00.674Z,5
2017-04-27T15:25:12.576Z,5
2017-04-27T15:26:25.459Z,5
2017-04-27T15:27:38.346Z,10
2017-04-27T15:28:51.238Z,10
2017-04-27T15:30:04.126Z,5
2017-04-27T15:31:16.522Z,5
2017-04-27T15:32:29.394Z,5
2017-04-27T15:33:42.289Z,5
2017-04-27T15:34:55.416Z,5
2017-04-27T15:36:08.295Z,5
2017-04-27T15:37:20.692Z,5
2017-04-27T15:38:33.570Z,5
2017-04-27T15:39:46.696Z,5
2017-04-27T15:40:59.584Z,5
2017-04-27T15:42:11.991Z,5
2017-04-27T15:43:24.381Z,5
2017-04-27T15:44:37.258Z,10
2017-04-27T15:45:50.438Z,10
2017-04-27T15:47:02.843Z,10
2017-04-27T15:48:14.745Z,10
2017-04-27T15:49:27.625Z,10
2017-04-27T15:50:40.270Z,10
2017-04-27T15:51:53.151Z,10
2017-04-27T15:53:05.543Z,10
2017-04-27T15:54:17.935Z,10
2017-04-27T15:55:30.721Z,10
2017-04-27T15:56:43.709Z,5
2017-04-27T15:57:56.454Z,5
2017-04-27T15:59:09.197Z,5
2017-04-27T16:00:21.463Z,5
2017-04-27T16:01:33.724Z,5
2017-04-27T16:02:45.998Z,5
2017-04-27T16:03:58.744Z,5
2017-04-27T16:05:11.486Z,5
2017-04-27T16:06:23.748Z,5
2017-04-27T16:07:36.746Z,5
2017-04-27T16:08:49.026Z,5
2017-04-27T16:10:01.789Z,5
2017-04-27T16:11:13.598Z,5
2017-04-27T16:12:26.595Z,5
2017-04-27T16:13:38.864Z,5
2017-04-27T16:14:51.127Z,5
2017-04-27T16:16:03.386Z,10
2017-04-27T16:17:16.126Z,10
2017-04-27T16:18:28.394Z,10
2017-04-27T16:19:40.664Z,10
2017-04-27T16:20:53.407Z,5
2017-04-27T16:22:06.150Z,5
2017-04-27T16:23:18.896Z,5
2017-04-27T16:24:31.644Z,5
2017-04-27T16:25:44.389Z,5
2017-04-27T16:26:56.178Z,5
2017-04-27T16:28:08.925Z,5
2017-04-27T16:29:21.682Z,5
2017-04-27T16:30:34.416Z,5
2017-04-27T16:31:47.156Z,5
2017-04-27T16:32:59.902Z,5
2017-04-27T16:34:12.648Z,10
2017-04-27T16:35:24.441Z,10
2017-04-27T16:36:37.183Z,10
2017-04-27T16:37:49.932Z,10
2017-04-27T16:39:02.679Z,10
2017-04-27T16:40:14.470Z,10
2017-04-27T16:41:27.223Z,10
2017-04-27T16:42:39.488Z,10
2017-04-27T16:43:52.228Z,10
2017-04-27T16:45:04.980Z,10
2017-04-27T16:46:17.242Z,5
2017-04-27T16:47:29.506Z,5
2017-04-27T16:48:42.250Z,5
2017-04-27T16:49:54.516Z,5
2017-04-27T16:51:07.505Z,5
2017-04-27T16:52:20.258Z,5
2017-04-27T16:53:32.529Z,5
2017-04-27T16:54:45.276Z,5
2017-04-27T16:55:58.018Z,5
2017-04-27T16:57:10.757Z,5
2017-04-27T16:58:23.030Z,5
2017-04-27T16:59:35.773Z,5
2017-04-27T17:00:48.296Z,5
2017-04-27T17:02:01.048Z,5
2017-04-27T17:03:12.832Z,5
2017-04-27T17:04:24.626Z,5
2017-04-27T17:05:37.621Z,5
2017-04-27T17:06:50.366Z,0
2017-04-27T17:08:03.119Z,0
2017-04-27T17:09:15.865Z,0
2017-04-27T17:10:28.613Z,0
2017-04-27T17:11:41.360Z,0
2017-04-27T17:12:54.262Z,0
2017-04-27T17:14:07.184Z,0
2017-04-27T17:15:19.627Z,0
2017-04-27T17:16:32.545Z,0
2017-04-27T17:17:45.463Z,5
2017-04-27T17:18:58.380Z,5
2017-04-27T17:20:10.316Z,5
2017-04-27T17:21:23.232Z,5
2017-04-27T17:22:36.151Z,5
2017-04-27T17:23:49.067Z,5
2017-04-27T17:25:01.984Z,5
2017-04-27T17:26:13.922Z,5
2017-04-27T17:27:26.843Z,5
2017-04-27T17:28:39.773Z,5
2017-04-27T17:29:52.999Z,5
2017-04-27T17:31:05.431Z,5
2017-04-27T17:32:18.072Z,5
2017-04-27T17:33:30.997Z,5
2017-04-27T17:34:43.927Z,5
2017-04-27T17:35:56.846Z,5
2017-04-27T17:37:08.788Z,5
2017-04-27T17:38:21.216Z,5
2017-04-27T17:39:34.142Z,5
2017-04-27T17:40:47.070Z,5
2017-04-27T17:41:59.996Z,5
2017-04-27T17:43:12.915Z,5
2017-04-27T17:44:25.837Z,5
2017-04-27T17:45:39.011Z,5
2017-04-27T17:46:51.935Z,5
2017-04-27T17:48:04.714Z,0
2017-04-27T17:49:16.978Z,0
2017-04-27T17:50:29.242Z,0
2017-04-27T17:51:41.981Z,0
2017-04-27T17:52:54.252Z,0